Time;durP1;ratioP1;P1;durP2;ratioP2;P2;SDS_P1;SDS_P2;PMS_P1;PMS_P2;Temp;Humidity;BMP_temperature;BMP_pressure;BME280_temperature;BME280_humidity;BME280_pressure;Samples;Min_cycle;Max_cycle;Signal;HPM_P1;HPM_P2
2022/03/17 00:01:24;;;;;;;35.72;21.05;;;7.80;99.90;;;;;;4687077;28;10000379;-72
2022/03/17 00:03:49;;;;;;;31.85;20.70;;;7.80;99.90;;;;;;5016753;28;20417;-71
2022/03/17 00:06:15;;;;;;;35.03;22.08;;;7.90;99.90;;;;;;5029177;28;20033;-71
2022/03/17 00:08:41;;;;;;;34.45;21.10;;;7.90;99.90;;;;;;5026539;28;20584;-71
2022/03/17 00:11:06;;;;;;;37.05;21.45;;;7.90;99.90;;;;;;5027597;28;20230;-71
2022/03/17 00:13:32;;;;;;;29.98;20.45;;;7.90;99.90;;;;;;5028763;28;20094;-71
2022/03/17 00:15:57;;;;;;;33.05;21.30;;;7.90;99.90;;;;;;5028349;28;20128;-71
2022/03/17 00:18:23;;;;;;;34.92;21.23;;;8.00;99.90;;;;;;5032783;28;20030;-71
2022/03/17 00:20:49;;;;;;;33.88;22.13;;;8.00;99.90;;;;;;5027796;28;20480;-71
2022/03/17 00:23:15;;;;;;;34.63;21.17;;;8.00;99.90;;;;;;5035707;28;20031;-71
2022/03/17 00:25:41;;;;;;;32.22;20.02;;;8.00;99.90;;;;;;5033546;28;20206;-71
2022/03/17 00:28:07;;;;;;;34.22;21.13;;;8.00;99.90;;;;;;5032706;28;20046;-71
2022/03/17 00:30:32;;;;;;;34.35;21.05;;;8.00;99.90;;;;;;5044024;28;20025;-71
2022/03/17 00:32:58;;;;;;;36.55;21.58;;;8.00;99.90;;;;;;5039494;28;20095;-71
2022/03/17 00:35:36;;;;;;;33.95;21.73;;;8.00;99.90;;;;;;5031511;28;20025;-71
2022/03/17 00:38:15;;;;;;;31.27;20.70;;;7.90;99.90;;;;;;5033696;28;20044;-71
2022/03/17 00:40:43;;;;;;;35.08;21.88;;;8.00;99.90;;;;;;5037911;28;20145;-71
2022/03/17 00:43:11;;;;;;;31.67;20.20;;;8.00;99.90;;;;;;5035608;28;20483;-71
2022/03/17 00:45:37;;;;;;;31.63;20.83;;;8.00;99.90;;;;;;5037001;28;20033;-71
2022/03/17 00:48:04;;;;;;;33.60;20.95;;;7.90;99.90;;;;;;5035956;28;20330;-71
2022/03/17 00:50:30;;;;;;;30.13;20.77;;;7.90;99.90;;;;;;5030640;28;20040;-71
2022/03/17 00:52:56;;;;;;;34.15;21.38;;;7.80;99.90;;;;;;5034376;28;20270;-71
2022/03/17 00:55:22;;;;;;;33.50;21.45;;;7.80;99.90;;;;;;5030771;28;20040;-71
2022/03/17 00:57:48;;;;;;;33.05;21.50;;;7.80;99.90;;;;;;5029140;28;20136;-71
2022/03/17 01:00:15;;;;;;;33.92;22.90;;;7.80;99.90;;;;;;5037690;28;20045;-71
2022/03/17 01:02:46;;;;;;;34.03;22.30;;;7.80;99.90;;;;;;5035413;28;20021;-71
2022/03/17 01:05:12;;;;;;;31.05;21.23;;;7.80;99.90;;;;;;5033751;28;20025;-72
2022/03/17 01:07:38;;;;;;;35.33;22.58;;;7.80;99.90;;;;;;5048394;28;20043;-71
2022/03/17 01:10:05;;;;;;;35.60;22.25;;;7.80;99.90;;;;;;5040639;28;20144;-71
2022/03/17 01:12:32;;;;;;;34.35;22.67;;;7.80;99.90;;;;;;5037875;28;20028;-71
2022/03/17 01:14:57;;;;;;;32.08;21.90;;;7.80;99.90;;;;;;5033024;28;20035;-71
2022/03/17 01:17:23;;;;;;;34.40;22.38;;;7.80;99.90;;;;;;5032664;28;20034;-71
2022/03/17 01:19:49;;;;;;;35.10;22.73;;;7.80;99.90;;;;;;5038413;28;20033;-71
2022/03/17 01:22:16;;;;;;;31.25;21.88;;;7.80;99.90;;;;;;5054090;28;20017;-71
2022/03/17 01:24:42;;;;;;;35.92;22.50;;;7.80;99.90;;;;;;5038498;28;20431;-71
2022/03/17 01:27:08;;;;;;;31.63;21.67;;;7.80;99.90;;;;;;5029370;28;20026;-71
2022/03/17 01:29:34;;;;;;;33.70;22.55;;;7.70;99.90;;;;;;5033502;28;20030;-71
2022/03/17 01:32:00;;;;;;;33.25;21.90;;;7.70;99.90;;;;;;5046849;28;20490;-71
2022/03/17 01:34:26;;;;;;;29.83;21.45;;;7.70;99.90;;;;;;5039579;28;20029;-71
2022/03/17 01:36:51;;;;;;;32.10;20.90;;;7.70;99.90;;;;;;5039590;28;20037;-71
2022/03/17 01:39:17;;;;;;;34.97;21.50;;;7.70;99.90;;;;;;5037718;28;20032;-71
2022/03/17 01:41:43;;;;;;;38.55;23.13;;;7.70;99.90;;;;;;5041050;28;20028;-71
2022/03/17 01:44:08;;;;;;;33.05;22.27;;;7.70;99.90;;;;;;5033025;28;20067;-71
2022/03/17 01:47:26;;;;;;;34.63;22.17;;;7.70;99.90;;;;;;5036178;28;20044;-71
2022/03/17 01:49:20;;;;;;;33.42;22.05;;;7.70;99.90;;;;;;5040071;28;20503;-71
2022/03/17 01:51:47;;;;;;;32.22;21.42;;;7.70;99.90;;;;;;5039286;28;20116;-71
2022/03/17 01:54:14;;;;;;;31.92;22.08;;;7.70;99.90;;;;;;5046489;28;20268;-71
2022/03/17 01:56:41;;;;;;;32.53;22.13;;;7.70;99.90;;;;;;5043572;28;20068;-71
2022/03/17 01:59:06;;;;;;;34.08;22.75;;;7.70;99.90;;;;;;5039696;28;20040;-71
2022/03/17 02:01:33;;;;;;;31.23;22.15;;;7.60;99.90;;;;;;5045838;28;20025;-71
2022/03/17 02:03:59;;;;;;;37.85;22.92;;;7.60;99.90;;;;;;5033910;28;20242;-71
2022/03/17 02:06:24;;;;;;;34.85;22.98;;;7.60;99.90;;;;;;5049928;28;20460;-71
2022/03/17 02:08:50;;;;;;;38.15;24.02;;;7.60;99.90;;;;;;5049999;28;20103;-71
2022/03/17 02:14:00;;;;;;;36.40;23.25;;;7.50;99.90;;;;;;5032188;28;20187;-71
2022/03/17 02:16:28;;;;;;;34.30;22.67;;;7.60;99.90;;;;;;5035653;28;20153;-71
2022/03/17 02:18:54;;;;;;;37.17;23.20;;;7.60;99.90;;;;;;5034829;28;20068;-72
2022/03/17 02:21:19;;;;;;;34.85;23.00;;;7.60;99.90;;;;;;5033503;28;20021;-71
2022/03/17 02:26:30;;;;;;;34.95;23.33;;;7.60;99.90;;;;;;5035412;28;20039;-72
2022/03/17 02:28:58;;;;;;;35.17;22.92;;;7.50;99.90;;;;;;5035496;28;20052;-71
2022/03/17 02:31:24;;;;;;;34.60;23.38;;;7.50;99.90;;;;;;5035101;28;20033;-72
2022/03/17 02:33:51;;;;;;;33.92;22.40;;;7.50;99.90;;;;;;5037646;28;20659;-71
2022/03/17 02:36:18;;;;;;;36.47;24.60;;;7.50;99.90;;;;;;5041842;28;20299;-71
2022/03/17 02:38:44;;;;;;;36.85;23.70;;;7.50;99.90;;;;;;5040214;28;20444;-71
2022/03/17 02:41:21;;;;;;;35.50;23.33;;;7.50;99.90;;;;;;5041161;28;20025;-71
2022/03/17 02:43:51;;;;;;;34.10;22.38;;;7.50;99.90;;;;;;5029014;28;20116;-71
2022/03/17 02:46:17;;;;;;;31.95;21.50;;;7.40;99.90;;;;;;5046947;28;20029;-71
2022/03/17 02:48:43;;;;;;;30.52;22.30;;;7.40;99.90;;;;;;5049930;28;20068;-71
2022/03/17 02:51:09;;;;;;;33.17;22.45;;;7.40;99.90;;;;;;5042557;28;20032;-71
2022/03/17 02:53:35;;;;;;;31.20;22.05;;;7.40;99.90;;;;;;5037065;28;20060;-71
2022/03/17 02:56:00;;;;;;;35.83;23.15;;;7.30;99.90;;;;;;5039825;28;20075;-71
2022/03/17 02:58:26;;;;;;;33.88;23.17;;;7.30;99.90;;;;;;5046311;28;20035;-71
2022/03/17 03:00:52;;;;;;;35.88;24.85;;;7.30;99.90;;;;;;5037662;28;20547;-71
2022/03/17 03:03:17;;;;;;;35.80;23.70;;;7.30;99.90;;;;;;5036097;28;20362;-71
2022/03/17 03:05:44;;;;;;;33.45;22.13;;;7.20;99.90;;;;;;5042306;28;20388;-71
2022/03/17 03:08:09;;;;;;;35.10;23.20;;;7.20;99.90;;;;;;5045246;28;20057;-71
2022/03/17 03:10:35;;;;;;;35.22;24.17;;;7.20;99.90;;;;;;5034918;28;20101;-71
2022/03/17 03:13:01;;;;;;;31.95;22.70;;;7.20;99.90;;;;;;5040552;28;20065;-71
2022/03/17 03:15:27;;;;;;;36.92;25.27;;;7.20;99.90;;;;;;5054036;28;20087;-71
2022/03/17 03:17:55;;;;;;;34.55;23.20;;;7.20;99.90;;;;;;5036908;28;20649;-71
2022/03/17 03:20:20;;;;;;;35.78;23.65;;;7.20;99.90;;;;;;5040585;28;20040;-71
2022/03/17 03:22:46;;;;;;;32.05;22.80;;;7.20;99.90;;;;;;5043279;28;20489;-71
2022/03/17 03:25:12;;;;;;;36.60;24.77;;;7.10;99.90;;;;;;5048129;28;20029;-71
2022/03/17 03:27:43;;;;;;;35.17;24.42;;;7.10;99.90;;;;;;5042479;28;20194;-71
2022/03/17 03:30:11;;;;;;;36.42;24.58;;;7.20;99.90;;;;;;5044593;28;20535;-71
2022/03/17 03:32:47;;;;;;;38.50;26.35;;;7.20;99.90;;;;;;5051747;28;20033;-72
2022/03/17 03:37:58;;;;;;;35.03;24.13;;;7.20;99.90;;;;;;5034680;28;20044;-71
2022/03/17 03:40:23;;;;;;;36.38;24.52;;;7.20;99.90;;;;;;5041158;28;20034;-71
2022/03/17 03:42:49;;;;;;;39.28;25.80;;;7.20;99.90;;;;;;5053105;28;20311;-71
2022/03/17 03:45:15;;;;;;;39.47;26.92;;;7.20;99.90;;;;;;5041554;28;20499;-71
2022/03/17 03:47:41;;;;;;;37.25;25.98;;;7.30;99.90;;;;;;5034159;28;20233;-71
2022/03/17 03:50:07;;;;;;;35.85;25.30;;;7.30;99.90;;;;;;5031342;28;20041;-71
2022/03/17 03:52:32;;;;;;;37.55;25.58;;;7.30;99.90;;;;;;5038137;28;20034;-71
2022/03/17 03:54:58;;;;;;;39.63;26.60;;;7.40;99.90;;;;;;5031408;28;20048;-71
2022/03/17 03:57:24;;;;;;;42.30;29.10;;;7.40;99.90;;;;;;5045509;28;20067;-71
2022/03/17 03:59:50;;;;;;;40.03;26.52;;;7.40;99.90;;;;;;5039324;28;20033;-71
2022/03/17 04:02:16;;;;;;;39.42;27.10;;;7.50;99.90;;;;;;5036748;28;20029;-71
2022/03/17 04:04:42;;;;;;;39.35;26.83;;;7.50;99.90;;;;;;5041478;28;20155;-71
2022/03/17 04:07:10;;;;;;;40.58;26.40;;;7.50;99.90;;;;;;5045998;28;20028;-71
2022/03/17 04:09:39;;;;;;;41.25;27.58;;;7.50;99.90;;;;;;5048958;28;20165;-71
2022/03/17 04:12:07;;;;;;;38.67;26.67;;;7.50;99.90;;;;;;5043204;28;20084;-71
2022/03/17 04:14:33;;;;;;;38.85;26.27;;;7.50;99.90;;;;;;5031738;28;20099;-71
2022/03/17 04:16:58;;;;;;;39.05;26.08;;;7.60;99.90;;;;;;5037288;28;20033;-71
2022/03/17 04:19:24;;;;;;;38.00;25.80;;;7.60;99.90;;;;;;5043254;28;20041;-71
2022/03/17 04:21:50;;;;;;;37.95;26.05;;;7.60;99.90;;;;;;5045132;28;20047;-71
2022/03/17 04:24:17;;;;;;;38.90;27.23;;;7.60;99.90;;;;;;5041958;28;20459;-71
2022/03/17 04:26:44;;;;;;;35.95;26.23;;;7.60;99.90;;;;;;5040574;28;20124;-71
2022/03/17 04:29:10;;;;;;;40.40;26.48;;;7.60;99.90;;;;;;5054041;28;20063;-71
2022/03/17 04:31:37;;;;;;;38.83;26.88;;;7.60;99.90;;;;;;5045507;28;20462;-71
2022/03/17 04:34:03;;;;;;;36.40;26.30;;;7.60;99.90;;;;;;5055337;28;20064;-71
2022/03/17 04:36:30;;;;;;;37.97;26.40;;;7.50;99.90;;;;;;5036382;28;20072;-71
2022/03/17 04:38:56;;;;;;;38.83;26.92;;;7.50;99.90;;;;;;5059142;28;20090;-72
2022/03/17 04:41:22;;;;;;;36.08;25.67;;;7.50;99.90;;;;;;5048318;28;20022;-71
2022/03/17 04:43:47;;;;;;;33.53;24.33;;;7.50;99.90;;;;;;5041913;28;20026;-71
2022/03/17 04:46:13;;;;;;;37.28;25.63;;;7.50;99.90;;;;;;5027884;28;20524;-71
2022/03/17 04:48:39;;;;;;;35.90;25.42;;;7.50;99.90;;;;;;5041495;28;20028;-71
2022/03/17 04:51:05;;;;;;;40.72;26.83;;;7.50;99.90;;;;;;5036505;28;20501;-71
2022/03/17 04:53:32;;;;;;;39.22;27.17;;;7.40;99.90;;;;;;5038880;28;20079;-71
2022/03/17 04:56:09;;;;;;;42.55;28.15;;;7.40;99.90;;;;;;5036462;28;20124;-72
2022/03/17 04:58:37;;;;;;;44.50;29.50;;;7.40;99.90;;;;;;5035922;28;20079;-71
2022/03/17 05:01:04;;;;;;;44.25;29.90;;;7.40;99.90;;;;;;5034644;28;20338;-71
2022/03/17 05:03:31;;;;;;;40.42;28.48;;;7.50;99.90;;;;;;5029979;28;20056;-71
2022/03/17 05:05:57;;;;;;;40.67;28.33;;;7.50;99.90;;;;;;5021715;28;20021;-71
2022/03/17 05:08:22;;;;;;;41.60;29.23;;;7.40;99.90;;;;;;5025196;28;20484;-71
2022/03/17 05:10:48;;;;;;;42.83;29.13;;;7.40;99.90;;;;;;5029058;28;20444;-71
2022/03/17 05:13:16;;;;;;;39.95;28.45;;;7.40;99.90;;;;;;5022182;28;20104;-71
2022/03/17 05:15:42;;;;;;;41.20;28.20;;;7.30;99.90;;;;;;5032794;28;20040;-71
2022/03/17 05:18:08;;;;;;;42.47;28.88;;;7.30;99.90;;;;;;5044417;28;20492;-71
2022/03/17 05:20:38;;;;;;;43.17;29.75;;;7.40;99.90;;;;;;5041626;28;20669;-71
2022/03/17 05:23:05;;;;;;;42.22;28.30;;;7.40;99.90;;;;;;5040504;28;20081;-70
2022/03/17 05:25:31;;;;;;;41.60;28.85;;;7.40;99.90;;;;;;5028388;28;20109;-71
2022/03/17 05:27:58;;;;;;;43.97;30.08;;;7.40;99.90;;;;;;5023665;28;20128;-71
2022/03/17 05:30:24;;;;;;;43.97;30.58;;;7.30;99.90;;;;;;5026339;28;20472;-71
2022/03/17 05:32:49;;;;;;;44.05;30.00;;;7.30;99.90;;;;;;5029444;28;20124;-71
2022/03/17 05:35:16;;;;;;;42.60;29.08;;;7.30;99.90;;;;;;5032302;28;20388;-71
2022/03/17 05:37:42;;;;;;;44.20;30.50;;;7.20;99.90;;;;;;5021654;28;20040;-71
2022/03/17 05:40:14;;;;;;;46.58;31.48;;;7.20;99.90;;;;;;5030087;28;20168;-71
2022/03/17 05:42:40;;;;;;;47.20;31.58;;;7.20;99.90;;;;;;5040485;28;20021;-71
2022/03/17 05:45:07;;;;;;;46.72;32.70;;;7.20;99.90;;;;;;5020592;28;20052;-71
2022/03/17 05:47:41;;;;;;;45.15;30.65;;;7.20;99.90;;;;;;5024143;28;20029;-71
2022/03/17 05:50:09;;;;;;;42.08;28.70;;;7.20;99.90;;;;;;5030799;28;20412;-71
2022/03/17 05:52:38;;;;;;;41.40;28.55;;;7.10;99.90;;;;;;5030771;28;20475;-71
2022/03/17 05:55:05;;;;;;;44.10;29.33;;;7.10;99.90;;;;;;5018490;28;20082;-72
2022/03/17 05:57:32;;;;;;;42.88;29.83;;;7.10;99.90;;;;;;5032293;28;20234;-71
2022/03/17 05:59:57;;;;;;;40.08;29.23;;;7.10;99.90;;;;;;5030883;28;20026;-71
2022/03/17 06:02:23;;;;;;;41.42;29.08;;;7.10;99.90;;;;;;5030029;28;20467;-71
2022/03/17 06:04:48;;;;;;;40.10;28.50;;;7.10;99.90;;;;;;5023464;28;20025;-71
2022/03/17 06:07:14;;;;;;;45.47;31.40;;;7.10;99.90;;;;;;5028001;28;20083;-71
2022/03/17 06:09:40;;;;;;;57.72;39.65;;;7.10;99.90;;;;;;5035406;28;20482;-71
2022/03/17 06:12:06;;;;;;;52.17;35.38;;;7.10;99.90;;;;;;5033530;28;20033;-72
2022/03/17 06:14:32;;;;;;;46.17;31.20;;;7.20;99.90;;;;;;5030818;28;20504;-71
2022/03/17 06:16:59;;;;;;;46.85;32.78;;;7.20;99.90;;;;;;5026235;28;20053;-71
2022/03/17 06:19:25;;;;;;;48.67;33.00;;;7.20;99.90;;;;;;5032240;28;20026;-71
2022/03/17 06:21:51;;;;;;;47.08;32.63;;;7.40;99.90;;;;;;5043204;28;20286;-71
2022/03/17 06:24:16;;;;;;;48.10;32.40;;;7.50;99.90;;;;;;5035487;28;20028;-71
2022/03/17 06:26:42;;;;;;;45.95;31.08;;;7.50;99.90;;;;;;5053184;28;20033;-71
2022/03/17 06:29:07;;;;;;;46.72;32.03;;;7.60;99.90;;;;;;5055113;28;20550;-70
2022/03/17 06:31:36;;;;;;;45.22;31.55;;;7.60;99.90;;;;;;5040232;28;20420;-71
2022/03/17 06:34:06;;;;;;;49.55;32.22;;;7.60;99.90;;;;;;5032761;28;20044;-71
2022/03/17 06:36:32;;;;;;;47.53;32.80;;;7.70;99.90;;;;;;5040668;28;20036;-71
2022/03/17 06:38:58;;;;;;;46.42;31.65;;;7.70;99.90;;;;;;5048753;28;20417;-71
2022/03/17 06:41:23;;;;;;;46.85;30.73;;;7.70;99.90;;;;;;5039206;28;20115;-70
2022/03/17 06:43:49;;;;;;;44.35;30.98;;;7.60;99.90;;;;;;5037606;28;20028;-71
2022/03/17 06:46:14;;;;;;;47.90;31.33;;;7.70;99.90;;;;;;5035856;28;20067;-70
2022/03/17 06:48:40;;;;;;;44.85;31.50;;;7.70;99.90;;;;;;5051637;28;20036;-70
2022/03/17 06:51:06;;;;;;;51.15;33.70;;;7.70;99.90;;;;;;5046137;28;20025;-71
2022/03/17 06:53:32;;;;;;;48.45;33.30;;;7.70;99.90;;;;;;5041481;28;20402;-70
2022/03/17 06:55:58;;;;;;;46.50;33.00;;;7.70;99.90;;;;;;5050480;28;20052;-71
2022/03/17 06:58:23;;;;;;;47.15;32.50;;;7.60;99.90;;;;;;5044502;28;20029;-71
2022/03/17 07:00:49;;;;;;;44.72;31.80;;;7.70;99.90;;;;;;5042718;28;20029;-71
2022/03/17 07:03:15;;;;;;;44.33;31.40;;;7.70;99.90;;;;;;5045004;28;20030;-71
2022/03/17 07:05:40;;;;;;;44.13;31.63;;;7.70;99.90;;;;;;5042813;28;20021;-71
2022/03/17 07:08:06;;;;;;;46.97;32.47;;;7.80;99.90;;;;;;5039460;28;20033;-71
2022/03/17 07:10:31;;;;;;;46.92;32.22;;;7.80;99.90;;;;;;5045579;28;20067;-71
2022/03/17 07:12:57;;;;;;;44.60;31.77;;;7.80;99.90;;;;;;5042664;28;20048;-71
2022/03/17 07:15:23;;;;;;;45.58;32.33;;;7.80;99.90;;;;;;5033380;28;20237;-71
2022/03/17 07:17:48;;;;;;;56.88;36.88;;;7.80;99.90;;;;;;5046119;28;20029;-71
2022/03/17 07:20:16;;;;;;;56.13;37.70;;;7.80;99.90;;;;;;5057031;28;20033;-71
2022/03/17 07:22:42;;;;;;;53.83;35.85;;;7.90;99.90;;;;;;5044200;28;20564;-71
2022/03/17 07:25:09;;;;;;;52.13;36.88;;;8.00;99.90;;;;;;5043049;28;20177;-71
2022/03/17 07:27:43;;;;;;;54.60;38.60;;;8.00;99.90;;;;;;5039405;28;20035;-71
2022/03/17 07:30:20;;;;;;;56.40;37.97;;;8.10;99.90;;;;;;5047412;28;20198;-71
2022/03/17 07:32:48;;;;;;;54.13;38.25;;;8.10;99.90;;;;;;5047484;28;20048;-71
2022/03/17 07:35:14;;;;;;;54.55;38.63;;;8.20;99.90;;;;;;5047637;28;20401;-71
2022/03/17 07:37:41;;;;;;;53.00;38.53;;;8.20;99.90;;;;;;5039889;28;20037;-71
2022/03/17 07:40:07;;;;;;;59.08;43.88;;;8.30;99.90;;;;;;5068113;28;20063;-71
2022/03/17 07:42:33;;;;;;;55.72;38.47;;;8.30;99.90;;;;;;5052704;28;20033;-70
2022/03/17 07:44:59;;;;;;;52.55;37.10;;;8.40;99.90;;;;;;5049670;28;20025;-71
2022/03/17 07:47:25;;;;;;;54.85;38.35;;;8.40;99.90;;;;;;5051599;28;20478;-71
2022/03/17 07:49:52;;;;;;;52.58;37.78;;;8.50;99.90;;;;;;5041192;28;20037;-71
2022/03/17 07:52:18;;;;;;;54.15;37.60;;;8.50;99.90;;;;;;5040731;28;20068;-71
2022/03/17 07:54:45;;;;;;;79.63;51.33;;;8.50;99.90;;;;;;5038290;28;20049;-71
2022/03/17 07:57:11;;;;;;;75.28;54.13;;;8.60;99.90;;;;;;5043200;28;20028;-70
2022/03/17 07:59:37;;;;;;;61.85;44.05;;;8.60;99.90;;;;;;5040936;28;20023;-71
2022/03/17 08:02:04;;;;;;;61.65;42.45;;;8.60;99.90;;;;;;5045416;28;20028;-70
2022/03/17 08:04:30;;;;;;;60.70;41.22;;;8.60;99.90;;;;;;5043596;28;20494;-71
2022/03/17 08:06:57;;;;;;;56.30;38.85;;;8.70;99.90;;;;;;5045095;28;20033;-71
2022/03/17 08:09:24;;;;;;;56.80;40.20;;;8.70;99.90;;;;;;5040984;28;20542;-71
2022/03/17 08:11:50;;;;;;;55.45;39.55;;;8.70;99.90;;;;;;5045808;28;20036;-71
2022/03/17 08:14:16;;;;;;;55.58;39.88;;;8.70;99.90;;;;;;5039760;28;20057;-71
2022/03/17 08:16:45;;;;;;;59.35;39.97;;;8.70;99.90;;;;;;5044164;28;20071;-71
2022/03/17 08:19:11;;;;;;;53.65;38.33;;;8.70;99.90;;;;;;5036805;28;20025;-71
2022/03/17 08:21:37;;;;;;;56.58;40.25;;;8.70;99.90;;;;;;5053201;28;20039;-71
2022/03/17 08:24:03;;;;;;;62.60;41.33;;;8.70;99.90;;;;;;5045116;28;20025;-71
2022/03/17 08:26:29;;;;;;;55.20;38.78;;;8.70;99.90;;;;;;5034406;28;20033;-71
2022/03/17 08:28:55;;;;;;;54.10;38.63;;;8.80;99.90;;;;;;5061560;28;20044;-71
2022/03/17 08:31:20;;;;;;;59.53;41.55;;;8.80;99.90;;;;;;5063525;28;20012;-71
2022/03/17 08:33:46;;;;;;;62.33;42.25;;;8.90;99.90;;;;;;5045329;28;20095;-70
2022/03/17 08:36:11;;;;;;;57.47;39.17;;;8.90;99.90;;;;;;5040585;28;20025;-71
2022/03/17 08:38:37;;;;;;;55.03;38.97;;;8.90;99.90;;;;;;5039486;28;20480;-71
2022/03/17 08:41:03;;;;;;;51.42;37.72;;;8.90;99.90;;;;;;5052335;28;20070;-71
2022/03/17 08:43:28;;;;;;;53.47;37.90;;;9.00;99.90;;;;;;5042296;28;20047;-71
2022/03/17 08:51:26;;;;;;;52.58;38.30;;;8.90;99.90;;;;;;5039407;28;20089;-71
2022/03/17 08:53:52;;;;;;;56.38;39.53;;;9.00;99.90;;;;;;5039097;28;20112;-71
2022/03/17 08:56:18;;;;;;;58.15;40.45;;;;;;;;;;5031683;28;20032;-72
2022/03/17 08:58:44;;;;;;;55.13;39.95;;;9.00;99.90;;;;;;5048839;28;20017;-71
2022/03/17 09:01:11;;;;;;;70.03;47.05;;;9.00;99.90;;;;;;5032771;28;20075;-71
2022/03/17 09:03:38;;;;;;;68.63;45.88;;;9.00;99.90;;;;;;4759511;28;10000883;-72
2022/03/17 09:06:04;;;;;;;66.35;45.40;;;9.00;99.90;;;;;;5038551;28;21027;-77
2022/03/17 09:08:29;;;;;;;72.22;48.58;;;9.00;99.90;;;;;;5036706;28;20120;-74
2022/03/17 09:10:56;;;;;;;85.53;53.38;;;9.00;99.90;;;;;;5040414;28;20028;-76
2022/03/17 09:13:26;;;;;;;75.38;50.17;;;9.00;99.90;;;;;;5040194;28;20433;-75
2022/03/17 09:15:54;;;;;;;64.93;43.95;;;9.00;99.90;;;;;;5031731;28;20044;-76
2022/03/17 09:18:21;;;;;;;63.97;43.05;;;9.00;99.90;;;;;;5041589;28;20102;-74
2022/03/17 09:20:48;;;;;;;61.15;43.30;;;9.00;99.90;;;;;;5042852;28;20051;-74
2022/03/17 09:23:14;;;;;;;64.38;43.95;;;9.00;99.90;;;;;;5040629;28;20029;-75
2022/03/17 09:25:40;;;;;;;59.15;42.83;;;8.90;99.90;;;;;;5036405;28;20036;-74
2022/03/17 09:28:06;;;;;;;60.65;42.75;;;8.90;99.90;;;;;;5041207;28;20471;-75
2022/03/17 09:30:33;;;;;;;64.03;42.50;;;9.00;99.90;;;;;;5036247;28;20037;-76
2022/03/17 09:33:03;;;;;;;62.45;43.10;;;8.90;99.90;;;;;;5035630;28;20063;-80
2022/03/17 09:35:28;;;;;;;64.35;43.88;;;8.90;99.90;;;;;;5023143;28;20037;-77
2022/03/17 09:37:54;;;;;;;68.15;44.85;;;8.90;99.90;;;;;;5043327;28;20063;-72
2022/03/17 09:40:20;;;;;;;65.53;42.95;;;9.00;99.90;;;;;;5037721;28;20488;-78
2022/03/17 09:42:45;;;;;;;68.28;45.28;;;8.90;99.90;;;;;;5039368;28;20017;-79
2022/03/17 09:45:12;;;;;;;68.80;44.35;;;8.90;99.90;;;;;;5038489;28;20573;-75
2022/03/17 09:47:40;;;;;;;70.63;46.55;;;8.90;99.90;;;;;;5049645;28;20032;-72
2022/03/17 09:50:07;;;;;;;64.40;44.75;;;8.90;99.90;;;;;;5044791;28;20029;-73
2022/03/17 09:52:36;;;;;;;66.47;44.72;;;8.90;99.90;;;;;;5039917;28;20609;-76
2022/03/17 09:55:03;;;;;;;63.80;45.78;;;8.90;99.90;;;;;;5037404;28;20036;-74
2022/03/17 09:57:29;;;;;;;62.40;45.25;;;8.90;99.90;;;;;;5042739;28;20384;-74
2022/03/17 09:59:57;;;;;;;79.47;52.78;;;8.90;99.90;;;;;;5036702;28;20025;-76
2022/03/17 10:02:23;;;;;;;75.20;52.83;;;8.80;99.90;;;;;;5044272;28;20073;-72
2022/03/17 10:04:49;;;;;;;75.85;51.53;;;8.80;99.90;;;;;;5035466;28;20036;-74
2022/03/17 10:07:18;;;;;;;74.15;50.13;;;8.80;99.90;;;;;;5038045;28;20041;-76
2022/03/17 10:09:44;;;;;;;72.90;50.47;;;8.80;99.90;;;;;;5033110;28;20025;-76
2022/03/17 10:12:13;;;;;;;74.85;52.60;;;8.80;99.90;;;;;;5044715;28;20075;-76
2022/03/17 10:14:41;;;;;;;81.82;55.35;;;8.70;99.90;;;;;;5035231;28;20032;-75
2022/03/17 10:17:33;;;;;;;71.60;51.10;;;8.70;99.90;;;;;;5037438;28;20469;-74
2022/03/17 10:20:22;;;;;;;68.55;48.40;;;8.60;99.90;;;;;;5045014;28;20033;-76
2022/03/17 10:22:51;;;;;;;62.47;45.17;;;8.60;99.90;;;;;;5040279;28;20673;-72
2022/03/17 10:25:19;;;;;;;65.93;46.25;;;8.60;99.90;;;;;;5040360;28;20540;-72
2022/03/17 10:27:46;;;;;;;65.97;45.78;;;8.60;99.90;;;;;;5039177;28;20051;-72
2022/03/17 10:30:20;;;;;;;68.15;47.25;;;8.60;99.90;;;;;;5039999;28;20060;-72
2022/03/17 10:33:00;;;;;;;65.63;44.92;;;8.60;99.90;;;;;;5040341;28;22113;-72
2022/03/17 10:35:34;;;;;;;64.75;45.72;;;8.60;99.90;;;;;;5028206;28;20235;-72
2022/03/17 10:38:12;;;;;;;63.72;45.08;;;8.60;99.90;;;;;;5044930;28;20119;-72
2022/03/17 10:40:38;;;;;;;60.47;43.85;;;8.60;99.90;;;;;;5039521;28;20037;-72
2022/03/17 10:43:15;;;;;;;66.07;46.45;;;8.60;99.90;;;;;;5032435;28;20033;-72
2022/03/17 10:45:42;;;;;;;67.65;46.53;;;8.60;99.90;;;;;;5057722;28;20548;-72
2022/03/17 10:48:08;;;;;;;65.93;47.65;;;8.60;99.90;;;;;;5065431;28;20037;-72
2022/03/17 10:50:43;;;;;;;65.35;47.00;;;8.60;99.90;;;;;;5046007;28;20044;-72
2022/03/17 10:53:09;;;;;;;68.57;47.45;;;8.60;99.90;;;;;;5044239;28;20029;-74
2022/03/17 10:55:36;;;;;;;71.28;48.88;;;8.60;99.90;;;;;;5029602;28;20100;-73
2022/03/17 10:58:19;;;;;;;70.00;47.47;;;8.60;99.90;;;;;;5044212;28;20130;-72
2022/03/17 11:00:50;;;;;;;71.43;48.20;;;8.50;99.90;;;;;;5036954;28;20757;-72
2022/03/17 11:03:17;;;;;;;76.45;49.38;;;8.50;99.90;;;;;;5033139;28;20643;-72
2022/03/17 11:05:43;;;;;;;70.38;48.08;;;8.50;99.90;;;;;;5042444;28;20090;-72
2022/03/17 11:08:10;;;;;;;73.45;50.10;;;8.50;99.90;;;;;;5050645;28;20037;-72
2022/03/17 11:10:40;;;;;;;72.38;49.42;;;8.50;99.90;;;;;;5047134;28;20542;-74
2022/03/17 11:13:11;;;;;;;79.82;53.20;;;8.50;99.90;;;;;;5039070;28;20090;-78
2022/03/17 11:15:40;;;;;;;79.50;54.08;;;8.50;99.90;;;;;;5041372;28;20133;-77
2022/03/17 11:18:10;;;;;;;77.78;53.97;;;8.50;99.90;;;;;;5044778;28;20309;-77
2022/03/17 11:20:36;;;;;;;74.35;51.10;;;8.50;99.90;;;;;;5045150;28;20021;-76
2022/03/17 11:23:25;;;;;;;79.53;51.28;;;8.50;99.90;;;;;;5028147;28;20397;-74
2022/03/17 11:25:56;;;;;;;74.75;51.38;;;8.50;99.90;;;;;;5035034;28;20021;-78
2022/03/17 11:28:39;;;;;;;80.38;54.78;;;8.50;99.90;;;;;;5042821;28;20047;-75
2022/03/17 11:31:08;;;;;;;81.68;55.00;;;8.50;99.90;;;;;;5037820;28;20098;-75
2022/03/17 11:33:45;;;;;;;78.88;54.58;;;8.50;99.90;;;;;;5034017;28;20128;-75
2022/03/17 11:36:16;;;;;;;75.88;52.15;;;8.50;99.90;;;;;;5034409;28;20033;-75
2022/03/17 11:39:02;;;;;;;75.93;50.78;;;8.50;99.90;;;;;;5046058;28;20036;-74
2022/03/17 11:41:30;;;;;;;72.45;49.25;;;8.50;99.90;;;;;;5033242;28;20069;-73
2022/03/17 11:43:56;;;;;;;72.35;49.97;;;8.40;99.90;;;;;;5050929;28;20113;-74
2022/03/17 11:46:37;;;;;;;76.00;49.45;;;8.40;99.90;;;;;;5035895;28;20033;-74
2022/03/17 11:49:21;;;;;;;72.57;48.60;;;8.40;99.90;;;;;;5044614;28;20040;-73
2022/03/17 11:52:03;;;;;;;70.70;47.50;;;8.40;99.90;;;;;;5054454;28;20040;-73
2022/03/17 11:54:30;;;;;;;70.32;48.45;;;8.50;99.90;;;;;;5053216;28;20544;-73
2022/03/17 11:57:04;;;;;;;65.32;45.60;;;8.50;99.90;;;;;;5034164;28;20082;-73
2022/03/17 11:59:54;;;;;;;62.50;43.85;;;8.50;99.90;;;;;;5036428;28;20029;-73
2022/03/17 12:02:28;;;;;;;68.13;45.40;;;8.50;99.90;;;;;;5029320;28;20032;-72
2022/03/17 12:04:54;;;;;;;68.18;46.42;;;8.50;99.90;;;;;;5029075;28;20084;-76
2022/03/17 12:07:20;;;;;;;62.20;44.00;;;8.50;99.90;;;;;;5041517;28;20040;-74
2022/03/17 12:09:47;;;;;;;69.32;47.05;;;8.50;99.90;;;;;;5047891;28;20377;-74
2022/03/17 12:12:16;;;;;;;65.80;45.88;;;8.50;99.90;;;;;;5031965;28;20044;-74
2022/03/17 12:14:54;;;;;;;67.55;45.63;;;8.50;99.90;;;;;;5041130;28;20130;-73
2022/03/17 12:17:22;;;;;;;58.78;40.35;;;8.50;99.90;;;;;;5037531;28;20128;-74
2022/03/17 12:20:04;;;;;;;51.97;36.00;;;8.50;99.90;;;;;;5029536;28;20036;-73
2022/03/17 12:22:39;;;;;;;47.63;31.58;;;8.40;99.90;;;;;;5036483;28;20200;-74
2022/03/17 12:25:21;;;;;;;41.63;28.55;;;8.50;99.90;;;;;;5027311;28;20065;-72
2022/03/17 12:27:55;;;;;;;38.90;25.73;;;8.40;99.90;;;;;;5042831;28;20048;-71
2022/03/17 12:30:22;;;;;;;33.55;23.77;;;8.40;99.90;;;;;;5037656;28;20110;-70
2022/03/17 12:32:53;;;;;;;33.67;22.17;;;8.40;99.90;;;;;;5033456;28;20087;-71
2022/03/17 12:35:21;;;;;;;34.30;22.15;;;8.40;99.90;;;;;;5035703;28;20244;-71
2022/03/17 12:37:47;;;;;;;33.35;22.02;;;8.30;99.90;;;;;;5036045;28;20028;-71
2022/03/17 12:40:20;;;;;;;30.92;21.15;;;8.30;99.90;;;;;;5038797;28;20021;-71
2022/03/17 12:42:47;;;;;;;29.57;19.90;;;8.30;99.90;;;;;;5042136;28;20101;-71
2022/03/17 12:45:16;;;;;;;29.67;20.25;;;8.30;99.90;;;;;;5037203;28;20040;-71
2022/03/17 12:47:46;;;;;;;26.75;17.45;;;8.30;99.90;;;;;;5034417;28;20032;-74
2022/03/17 12:50:18;;;;;;;25.92;17.38;;;8.40;99.90;;;;;;5037569;28;20123;-74
2022/03/17 12:52:45;;;;;;;26.17;16.48;;;8.50;99.90;;;;;;5048237;28;20043;-74
2022/03/17 12:55:13;;;;;;;22.88;15.88;;;8.50;99.90;;;;;;5034264;28;20155;-74